Anaconda (3U3)
Anaconda, MT
Field Elevation: 5030
Lat: 46°09.19N  Long: 112°52.07W
CTAF/Unicom Freq: 122.8000
   
    
Weather Advisories
2017-10-18   18:06 Z
Altimeter 30.02" Hg
Wind 210° @ 14 KT
Gusts 19 KT
Temperature 16° C (61° F)
Dewpoint -7° C (19° F)
Relative Humidity 20%
Density Altitude 6,100 feet
Condensation Altitude 16,700 feet
Wind and Runways
Indicated Runway = 22
Headwind = 14 kt
Crosswind = 2 kt
History
 
 
 
More Info
NOAA Forecast
 
 
About Us
Belfort Instrument
 
 
FAA Disclaimer: The data displayed is for advisory purposes only and is not to be used for flight planning or operations. For official data, please call (not available) to hear the current automated AWOS voice message.
  METAR 3U3 181806Z AUTO 21014G19KT 16/M07 A3002